createdAt,value
2022-10-17T00:03:45.683Z,30.2
2022-10-17T00:08:47.485Z,30.3
2022-10-17T00:13:49.326Z,30.2
2022-10-17T00:18:51.176Z,30.2
2022-10-17T00:23:52.998Z,30.2
2022-10-17T00:28:54.845Z,30.2
2022-10-17T00:33:56.701Z,30.2
2022-10-17T00:38:58.503Z,30.2
2022-10-17T00:44:00.321Z,30.2
2022-10-17T00:49:01.351Z,30.2
2022-10-17T00:54:03.183Z,30.2
2022-10-17T01:04:07.880Z,30.2
2022-10-17T01:09:09.704Z,30.2
2022-10-17T01:14:11.534Z,30.2
2022-10-17T01:19:13.471Z,30.2
2022-10-17T01:24:15.405Z,30.2
2022-10-17T01:29:17.237Z,30.2
2022-10-17T01:34:19.054Z,30.1
2022-10-17T01:39:20.872Z,30.1
2022-10-17T01:44:22.682Z,30.1
2022-10-17T01:49:24.538Z,30.1
2022-10-17T01:54:26.568Z,30.1
2022-10-17T01:59:28.370Z,30.1
2022-10-17T02:04:30.206Z,30.1
2022-10-17T02:09:32.020Z,30.1
2022-10-17T02:14:33.839Z,30.1
2022-10-17T02:19:35.674Z,30.1
2022-10-17T02:24:37.469Z,30.1
2022-10-17T02:29:39.281Z,30.1
2022-10-17T02:34:41.085Z,30.1
2022-10-17T02:39:42.906Z,30.1
2022-10-17T02:44:44.708Z,30.1
2022-10-17T02:49:46.529Z,30.1
2022-10-17T02:54:48.325Z,30.1
2022-10-17T02:59:50.127Z,30.1
2022-10-17T03:04:51.945Z,30.1
2022-10-17T03:09:53.751Z,30.1
2022-10-17T03:14:55.786Z,30.1
2022-10-17T03:19:57.602Z,30.1
2022-10-17T03:24:59.423Z,30.1
2022-10-17T03:30:01.266Z,30
2022-10-17T03:35:03.104Z,30.1
2022-10-17T03:40:04.990Z,30
2022-10-17T03:45:07.038Z,30
2022-10-17T03:50:08.892Z,30
2022-10-17T03:55:10.705Z,30
2022-10-17T04:00:12.550Z,30
2022-10-17T04:05:14.473Z,30
2022-10-17T04:10:16.334Z,30
2022-10-17T04:15:18.124Z,29.9
2022-10-17T04:20:19.931Z,29.9
2022-10-17T04:25:21.720Z,29.9
2022-10-17T04:30:23.516Z,29.9
2022-10-17T04:35:25.330Z,29.9
2022-10-17T04:40:27.142Z,29.9
2022-10-17T04:45:28.961Z,29.9
2022-10-17T04:50:30.779Z,29.9
2022-10-17T04:55:32.586Z,29.9
2022-10-17T05:00:34.409Z,29.9
2022-10-17T05:05:36.277Z,29.9
2022-10-17T05:10:38.067Z,29.9
2022-10-17T05:15:40.250Z,29.9
2022-10-17T05:20:42.056Z,29.9
2022-10-17T05:25:43.842Z,29.9
2022-10-17T05:30:45.629Z,29.9
2022-10-17T05:35:47.475Z,29.9
2022-10-17T05:40:49.250Z,29.9
2022-10-17T05:45:51.306Z,29.9
2022-10-17T05:50:53.363Z,29.8
2022-10-17T05:55:55.160Z,29.8
2022-10-17T06:00:56.978Z,29.8
2022-10-17T06:05:58.805Z,29.8
2022-10-17T06:11:00.612Z,29.8
2022-10-17T06:16:02.425Z,29.8
2022-10-17T06:21:04.260Z,29.8
2022-10-17T06:26:06.262Z,29.8
2022-10-17T06:31:08.085Z,29.8
2022-10-17T06:36:09.929Z,29.8
2022-10-17T06:41:11.732Z,29.8
2022-10-17T06:46:13.541Z,29.8
2022-10-17T06:51:15.339Z,29.8
2022-10-17T06:56:17.164Z,29.8
2022-10-17T07:01:18.959Z,29.8
2022-10-17T07:06:20.745Z,29.8
2022-10-17T07:11:22.508Z,29.8
2022-10-17T07:16:24.306Z,29.8
2022-10-17T07:21:26.094Z,29.7
2022-10-17T07:26:27.894Z,29.7
2022-10-17T07:31:29.680Z,29.7
2022-10-17T07:36:31.514Z,29.7
2022-10-17T07:41:33.542Z,29.7
2022-10-17T07:46:35.305Z,29.7
2022-10-17T07:51:37.169Z,29.7
2022-10-17T07:56:39.041Z,29.7
2022-10-17T08:01:41.220Z,29.6
2022-10-17T08:06:43.051Z,29.7
2022-10-17T08:11:44.824Z,29.6
2022-10-17T08:16:46.618Z,29.6
2022-10-17T08:21:48.451Z,29.6
2022-10-17T08:26:51.852Z,29.6
2022-10-17T08:31:56.215Z,29.6
2022-10-17T08:37:02.381Z,29.6
2022-10-17T08:42:04.197Z,29.6
2022-10-17T08:47:06.018Z,29.6
2022-10-17T08:52:07.827Z,29.6
2022-10-17T08:57:09.600Z,29.6
2022-10-17T09:02:11.393Z,29.6
2022-10-17T09:07:13.246Z,29.6
2022-10-17T09:12:14.235Z,29.6
2022-10-17T09:17:16.004Z,29.6
2022-10-17T09:22:18.099Z,29.6
2022-10-17T09:27:19.907Z,29.6
2022-10-17T09:32:21.732Z,29.6
2022-10-17T09:37:23.662Z,29.5
2022-10-17T09:42:25.837Z,29.5
2022-10-17T09:47:27.689Z,29.5
2022-10-17T09:52:30.061Z,29.5
2022-10-17T09:57:32.078Z,29.5
2022-10-17T10:02:34.162Z,29.5
2022-10-17T10:07:35.268Z,29.4
2022-10-17T10:12:37.065Z,29.4
2022-10-17T10:17:38.888Z,29.4
2022-10-17T10:22:40.714Z,29.4
2022-10-17T10:27:41.719Z,29.4
2022-10-17T10:32:43.722Z,29.4
2022-10-17T10:37:45.591Z,29.4
2022-10-17T10:42:47.362Z,29.4
2022-10-17T10:47:49.151Z,29.4
2022-10-17T10:52:50.951Z,29.4
2022-10-17T10:57:52.743Z,29.4
2022-10-17T11:02:54.500Z,29.4
2022-10-17T11:07:56.262Z,29.4
2022-10-17T11:12:58.042Z,29.4
2022-10-17T11:17:59.797Z,29.4
2022-10-17T11:23:01.571Z,29.4
2022-10-17T11:28:05.040Z,29.3
2022-10-17T11:33:07.114Z,29.4
2022-10-17T11:38:08.924Z,29.3
2022-10-17T11:43:10.905Z,29.3
2022-10-17T11:48:12.698Z,29.3
2022-10-17T11:53:14.493Z,29.3
2022-10-17T11:58:16.379Z,29.3
2022-10-17T12:03:18.255Z,29.3
2022-10-17T12:08:20.083Z,29.3
2022-10-17T12:13:21.900Z,29.3
2022-10-17T12:18:23.917Z,29.3
2022-10-17T12:23:26.065Z,29.3
2022-10-17T12:28:28.034Z,29.3
2022-10-17T12:33:29.845Z,29.3
2022-10-17T12:38:31.652Z,29.3
2022-10-17T12:43:33.448Z,29.3
2022-10-17T12:48:35.403Z,29.2
2022-10-17T12:53:37.180Z,29.2
2022-10-17T12:58:39.149Z,29.2
2022-10-17T13:03:41.010Z,29.2
2022-10-17T13:08:43.047Z,29.2
2022-10-17T13:13:44.823Z,29.2
2022-10-17T13:18:46.623Z,29.2
2022-10-17T13:23:48.391Z,29.1
2022-10-17T13:28:50.364Z,29.2
2022-10-17T13:33:52.282Z,29.1
2022-10-17T13:38:54.053Z,29.1
2022-10-17T13:43:55.826Z,29.1
2022-10-17T13:48:57.559Z,29.1
2022-10-17T13:53:59.344Z,29.1
2022-10-17T13:59:01.135Z,29.1
2022-10-17T14:04:09.158Z,29.1
2022-10-17T14:09:11.356Z,29.1
2022-10-17T14:14:13.084Z,29.1
2022-10-17T14:19:14.867Z,29.1
2022-10-17T14:24:16.676Z,29.1
2022-10-17T14:29:18.451Z,29.1
2022-10-17T14:34:20.210Z,29.1
2022-10-17T14:39:21.969Z,29.1
2022-10-17T14:44:23.708Z,29
2022-10-17T14:49:25.479Z,29
2022-10-17T14:54:27.293Z,29
2022-10-17T14:59:53.154Z,29
2022-10-17T15:04:55.145Z,28.9
2022-10-17T15:09:56.950Z,28.9
2022-10-17T15:14:58.745Z,28.9
2022-10-17T15:20:00.542Z,28.9
2022-10-17T15:25:02.389Z,28.9
2022-10-17T15:30:04.134Z,28.9
2022-10-17T15:35:05.897Z,28.9
2022-10-17T15:40:07.683Z,28.9
2022-10-17T15:50:11.196Z,28.9
2022-10-17T15:55:12.970Z,28.9
2022-10-17T16:00:16.601Z,28.9
2022-10-17T16:05:18.524Z,28.9
2022-10-17T16:10:20.338Z,28.9
2022-10-17T16:15:22.110Z,28.9
2022-10-17T16:20:23.900Z,28.8
2022-10-17T16:25:25.718Z,28.8
2022-10-17T16:30:27.486Z,28.8
2022-10-17T16:35:31.737Z,28.8
2022-10-17T16:40:36.769Z,31.7
2022-10-17T16:45:37.010Z,34.9
2022-10-17T16:50:37.325Z,37.2
2022-10-17T16:55:37.701Z,38.8
2022-10-17T17:00:38.172Z,40.3
2022-10-17T17:05:38.668Z,41.7
2022-10-17T17:10:39.175Z,43.1
2022-10-17T17:15:39.795Z,44.2
2022-10-17T17:20:40.438Z,46.5
2022-10-17T17:25:41.694Z,47.8
2022-10-17T17:30:42.377Z,48.3
2022-10-17T17:35:43.110Z,48.6
2022-10-17T17:40:46.862Z,48.7
2022-10-17T17:45:50.209Z,49
2022-10-17T17:50:51.181Z,49
2022-10-17T17:55:52.139Z,48.9
2022-10-17T18:00:52.917Z,48.7
2022-10-17T18:05:53.656Z,48.3
2022-10-17T18:10:54.316Z,48.1
2022-10-17T18:15:54.960Z,48.1
2022-10-17T18:20:55.626Z,48
2022-10-17T18:25:56.320Z,47.9
2022-10-17T18:30:56.950Z,47.9
2022-10-17T18:35:58.374Z,45.9
2022-10-17T18:40:59.030Z,45.4
2022-10-17T18:45:59.849Z,45.2
2022-10-17T18:51:00.418Z,45
2022-10-17T18:56:00.981Z,44.9
2022-10-17T19:01:01.591Z,44.7
2022-10-17T19:06:02.151Z,44.6
2022-10-17T19:11:02.702Z,44.5
2022-10-17T19:16:03.235Z,44.4
2022-10-17T19:21:03.840Z,44.1
2022-10-17T19:26:04.379Z,43.8
2022-10-17T19:31:04.903Z,42.1
2022-10-17T19:36:05.336Z,40
2022-10-17T19:41:05.817Z,39.5
2022-10-17T19:46:06.235Z,39.2
2022-10-17T19:51:06.652Z,38.5
2022-10-17T19:56:07.032Z,38
2022-10-17T20:01:07.481Z,37.8
2022-10-17T20:06:08.177Z,36.3
2022-10-17T20:11:08.469Z,35.5
2022-10-17T20:16:09.031Z,35.4
2022-10-17T20:21:09.341Z,35.3
2022-10-17T20:26:25.246Z,35.2
2022-10-17T20:31:26.332Z,35.1
2022-10-17T20:36:26.630Z,35.1
2022-10-17T20:41:26.887Z,35.1
2022-10-17T20:46:36.707Z,35
2022-10-17T20:51:37.236Z,35
2022-10-17T20:56:37.506Z,34.9
2022-10-17T21:01:38.093Z,34.9
2022-10-17T21:06:38.352Z,34.9
2022-10-17T21:11:38.834Z,34.9
2022-10-17T21:16:39.083Z,34.8
2022-10-17T21:21:39.372Z,34.7
2022-10-17T21:26:39.625Z,34.7
2022-10-17T21:31:39.905Z,34.7
2022-10-17T21:36:40.149Z,34.7
2022-10-17T21:41:40.369Z,34.7
2022-10-17T21:46:40.801Z,34.6
2022-10-17T21:51:41.091Z,34.6
2022-10-17T21:56:41.333Z,34.6
2022-10-17T22:01:41.621Z,34.6
2022-10-17T22:06:42.071Z,34.5
2022-10-17T22:11:42.429Z,34.5
2022-10-17T22:16:42.667Z,34.5
2022-10-17T22:21:42.926Z,34.4
2022-10-17T22:26:43.194Z,34.4
2022-10-17T22:31:43.458Z,34.4
2022-10-17T22:36:44.009Z,34.4
2022-10-17T22:41:44.235Z,34.4
2022-10-17T22:46:44.499Z,34.3
2022-10-17T22:51:44.760Z,34.3
2022-10-17T22:56:45.013Z,34.3
2022-10-17T23:01:45.287Z,34.2
2022-10-17T23:06:45.530Z,34.2
2022-10-17T23:11:45.798Z,34.2
2022-10-17T23:16:46.023Z,34.2
2022-10-17T23:21:46.269Z,34.2
2022-10-17T23:26:46.487Z,34.2
2022-10-17T23:31:46.729Z,34.1
2022-10-17T23:36:46.944Z,34.1
2022-10-17T23:41:47.192Z,34.1
2022-10-17T23:46:47.401Z,34.1
2022-10-17T23:51:47.628Z,34.1
2022-10-17T23:56:47.840Z,34.1
